createdAt,value
2022-10-17T00:01:41.715Z,19.30
2022-10-17T00:04:08.376Z,20.17
2022-10-17T00:06:35.349Z,19.95
2022-10-17T00:09:02.186Z,20.48
2022-10-17T00:11:28.800Z,20.63
2022-10-17T00:13:56.778Z,23.08
2022-10-17T00:16:33.514Z,21.45
2022-10-17T00:19:00.886Z,21.63
2022-10-17T00:21:27.545Z,22.63
2022-10-17T00:23:54.602Z,23.25
2022-10-17T00:26:21.249Z,23.70
2022-10-17T00:28:52.343Z,22.50
2022-10-17T00:31:20.643Z,23.77
2022-10-17T00:33:47.518Z,22.55
2022-10-17T00:36:17.731Z,22.38
2022-10-17T00:38:46.740Z,21.10
2022-10-17T00:41:17.026Z,22.15
2022-10-17T00:44:05.669Z,21.90
2022-10-17T00:46:39.636Z,21.88
2022-10-17T00:49:10.119Z,22.85
2022-10-17T00:52:10.572Z,23.27
2022-10-17T00:54:44.218Z,21.85
2022-10-17T00:57:11.607Z,22.05
2022-10-17T00:59:41.806Z,22.70
2022-10-17T01:02:17.730Z,21.33
2022-10-17T01:04:47.865Z,20.92
2022-10-17T01:07:14.489Z,21.15
2022-10-17T01:09:41.851Z,19.85
2022-10-17T01:12:31.735Z,20.77
2022-10-17T01:15:19.145Z,20.23
2022-10-17T01:18:07.169Z,21.83
2022-10-17T01:20:49.013Z,22.10
2022-10-17T01:23:41.607Z,24.88
2022-10-17T01:26:37.632Z,23.48
2022-10-17T01:29:06.929Z,24.88
2022-10-17T01:32:15.317Z,23.00
2022-10-17T01:35:09.089Z,22.38
2022-10-17T01:40:22.111Z,21.30
2022-10-17T01:42:56.984Z,20.52
2022-10-17T01:45:31.714Z,22.55
2022-10-17T01:48:02.755Z,21.00
2022-10-17T01:50:35.580Z,21.35
2022-10-17T01:53:11.837Z,21.33
2022-10-17T01:55:42.506Z,21.67
2022-10-17T01:58:17.078Z,22.27
2022-10-17T02:00:45.676Z,21.80
2022-10-17T02:03:19.009Z,23.02
2022-10-17T02:05:46.016Z,23.38
2022-10-17T02:08:13.353Z,24.80
2022-10-17T02:11:17.901Z,26.05
2022-10-17T02:13:53.638Z,23.35
2022-10-17T02:16:22.842Z,24.10
2022-10-17T02:19:16.691Z,24.75
2022-10-17T02:22:19.316Z,24.15
2022-10-17T02:25:03.844Z,21.98
2022-10-17T02:28:00.912Z,22.17
2022-10-17T02:33:29.414Z,23.95
2022-10-17T02:36:01.261Z,23.25
2022-10-17T02:38:30.143Z,24.20
2022-10-17T02:40:56.970Z,23.25
2022-10-17T02:43:24.013Z,23.08
2022-10-17T02:45:52.718Z,24.10
2022-10-17T02:48:32.560Z,24.75
2022-10-17T02:51:08.993Z,22.55
2022-10-17T02:53:52.379Z,19.67
2022-10-17T02:56:21.322Z,21.13
2022-10-17T02:58:53.894Z,21.73
2022-10-17T03:01:21.139Z,21.92
2022-10-17T03:03:47.903Z,23.08
2022-10-17T03:06:14.544Z,21.60
2022-10-17T03:08:41.098Z,23.25
2022-10-17T03:11:09.286Z,21.63
2022-10-17T03:13:38.993Z,22.05
2022-10-17T03:16:06.757Z,22.27
2022-10-17T03:18:33.383Z,23.73
2022-10-17T03:20:59.962Z,23.45
2022-10-17T03:23:26.548Z,24.08
2022-10-17T03:25:53.111Z,22.60
2022-10-17T03:28:19.680Z,25.42
2022-10-17T03:30:46.259Z,23.38
2022-10-17T03:33:12.812Z,24.05
2022-10-17T03:35:40.301Z,24.90
2022-10-17T03:38:07.022Z,24.15
2022-10-17T03:40:33.610Z,23.90
2022-10-17T03:43:00.199Z,23.67
2022-10-17T03:45:26.783Z,22.40
2022-10-17T03:47:53.351Z,23.48
2022-10-17T03:50:19.904Z,23.10
2022-10-17T03:52:48.518Z,23.30
2022-10-17T03:55:16.033Z,23.15
2022-10-17T03:57:45.368Z,23.20
2022-10-17T04:00:13.162Z,22.98
2022-10-17T04:02:39.761Z,22.75
2022-10-17T04:05:07.321Z,24.25
2022-10-17T04:07:37.314Z,23.52
2022-10-17T04:10:05.203Z,24.70
2022-10-17T04:12:31.933Z,24.67
2022-10-17T04:14:58.712Z,23.98
2022-10-17T04:17:25.283Z,23.80
2022-10-17T04:19:51.914Z,24.33
2022-10-17T04:22:18.537Z,25.25
2022-10-17T04:24:45.168Z,26.02
2022-10-17T04:27:11.812Z,23.85
2022-10-17T04:29:38.336Z,23.50
2022-10-17T04:32:05.038Z,24.38
2022-10-17T04:34:31.625Z,26.42
2022-10-17T04:36:58.188Z,24.88
2022-10-17T04:39:24.743Z,24.73
2022-10-17T04:41:51.347Z,24.90
2022-10-17T04:44:18.227Z,25.10
2022-10-17T04:46:44.846Z,23.45
2022-10-17T04:49:11.389Z,23.60
2022-10-17T04:51:38.556Z,22.67
2022-10-17T04:54:05.346Z,23.95
2022-10-17T04:56:31.999Z,24.95
2022-10-17T04:58:59.698Z,25.48
2022-10-17T05:01:27.170Z,24.80
2022-10-17T05:03:54.416Z,27.08
2022-10-17T05:06:23.906Z,25.90
2022-10-17T05:08:50.617Z,26.00
2022-10-17T05:11:26.022Z,24.38
2022-10-17T05:14:00.831Z,24.88
2022-10-17T05:16:28.427Z,24.83
2022-10-17T05:18:57.286Z,23.75
2022-10-17T05:21:25.687Z,24.30
2022-10-17T05:23:52.689Z,25.25
2022-10-17T05:26:19.816Z,23.92
2022-10-17T05:28:46.583Z,23.13
2022-10-17T05:31:13.434Z,23.00
2022-10-17T05:33:40.274Z,23.58
2022-10-17T05:36:07.735Z,22.55
2022-10-17T05:38:34.487Z,23.73
2022-10-17T05:41:03.271Z,25.00
2022-10-17T05:43:31.061Z,23.05
2022-10-17T05:45:58.008Z,21.05
2022-10-17T05:48:25.432Z,23.50
2022-10-17T05:50:59.446Z,22.10
2022-10-17T05:53:26.454Z,22.48
2022-10-17T05:56:01.314Z,25.08
2022-10-17T06:01:15.118Z,23.20
2022-10-17T06:03:41.721Z,24.67
2022-10-17T06:06:13.136Z,23.98
2022-10-17T06:08:39.784Z,23.95
2022-10-17T06:11:09.873Z,24.30
2022-10-17T06:13:38.029Z,25.05
2022-10-17T06:16:04.930Z,25.88
2022-10-17T06:18:32.383Z,26.70
2022-10-17T06:21:07.034Z,27.23
2022-10-17T06:23:33.981Z,25.77
2022-10-17T06:26:01.938Z,25.25
2022-10-17T06:28:29.009Z,24.08
2022-10-17T06:30:55.973Z,24.77
2022-10-17T06:33:23.481Z,22.02
2022-10-17T06:35:57.026Z,21.05
2022-10-17T06:38:23.660Z,18.75
2022-10-17T06:40:50.249Z,19.92
2022-10-17T06:43:16.797Z,18.00
2022-10-17T06:45:45.696Z,20.70
2022-10-17T06:48:12.666Z,18.23
2022-10-17T06:50:39.500Z,16.52
2022-10-17T06:53:06.106Z,15.63
2022-10-17T06:55:33.027Z,17.15
2022-10-17T06:57:59.612Z,16.95
2022-10-17T07:00:26.950Z,15.52
2022-10-17T07:02:53.560Z,14.60
2022-10-17T07:05:20.220Z,14.07
2022-10-17T07:07:48.586Z,13.65
2022-10-17T07:10:18.468Z,14.40
2022-10-17T07:12:45.981Z,14.75
2022-10-17T07:15:13.326Z,13.88
2022-10-17T07:17:40.201Z,13.55
2022-10-17T07:20:07.608Z,13.57
2022-10-17T07:22:34.259Z,14.57
2022-10-17T07:25:00.820Z,13.75
2022-10-17T07:27:27.913Z,14.02
2022-10-17T07:29:54.758Z,13.70
2022-10-17T07:32:21.352Z,13.32
2022-10-17T07:34:48.931Z,12.75
2022-10-17T07:37:15.567Z,12.77
2022-10-17T07:39:42.124Z,12.20
2022-10-17T07:42:09.014Z,13.30
2022-10-17T07:44:35.929Z,12.45
2022-10-17T07:47:02.706Z,12.93
2022-10-17T07:49:29.514Z,12.98
2022-10-17T07:51:56.172Z,11.27
2022-10-17T07:54:23.157Z,12.23
2022-10-17T07:56:50.917Z,11.50
2022-10-17T07:59:20.368Z,12.07
2022-10-17T08:01:47.382Z,12.60
2022-10-17T08:04:16.947Z,11.60
2022-10-17T08:06:43.614Z,12.20
2022-10-17T08:09:10.183Z,8.05
2022-10-17T08:11:37.356Z,12.25
2022-10-17T08:14:04.110Z,9.63
2022-10-17T08:16:31.145Z,12.82
2022-10-17T08:18:57.860Z,11.52
2022-10-17T08:21:24.545Z,9.80
2022-10-17T08:23:51.187Z,12.38
2022-10-17T08:26:20.122Z,10.65
2022-10-17T08:28:47.869Z,12.10
2022-10-17T08:31:19.768Z,7.85
2022-10-17T08:33:48.218Z,10.95
2022-10-17T08:36:17.834Z,9.80
2022-10-17T08:38:47.959Z,10.10
2022-10-17T08:41:47.523Z,11.93
2022-10-17T08:44:33.379Z,9.35
2022-10-17T08:49:55.899Z,11.70
2022-10-17T08:52:43.096Z,8.15
2022-10-17T08:55:29.582Z,12.07
2022-10-17T08:57:56.269Z,9.18
2022-10-17T09:00:22.989Z,9.73
2022-10-17T09:03:32.781Z,10.00
2022-10-17T09:06:15.112Z,10.73
2022-10-17T09:08:55.445Z,8.70
2022-10-17T09:12:13.034Z,11.88
2022-10-17T09:15:03.107Z,10.90
2022-10-17T09:17:53.492Z,10.88
2022-10-17T09:20:28.117Z,9.95
2022-10-17T09:23:02.509Z,11.68
2022-10-17T09:25:39.845Z,8.65
2022-10-17T09:28:24.249Z,10.88
2022-10-17T09:30:59.721Z,10.63
2022-10-17T09:36:18.007Z,10.32
2022-10-17T09:38:56.243Z,7.38
2022-10-17T09:41:47.453Z,9.90
2022-10-17T09:44:33.164Z,7.53
2022-10-17T09:47:17.994Z,7.57
2022-10-17T09:49:47.485Z,9.43
2022-10-17T09:52:19.234Z,10.55
2022-10-17T09:54:49.299Z,9.98
2022-10-17T09:57:18.132Z,9.25
2022-10-17T09:59:48.846Z,9.43
2022-10-17T10:02:25.103Z,10.52
2022-10-17T10:05:03.645Z,9.65
2022-10-17T10:07:39.214Z,10.13
2022-10-17T10:10:22.660Z,6.30
2022-10-17T10:13:14.143Z,6.75
2022-10-17T10:15:44.692Z,10.30
2022-10-17T10:18:26.653Z,8.38
2022-10-17T10:21:16.057Z,7.60
2022-10-17T10:23:45.482Z,5.80
2022-10-17T10:26:23.569Z,10.15
2022-10-17T10:28:58.827Z,8.57
2022-10-17T10:31:42.832Z,9.02
2022-10-17T10:34:20.651Z,9.02
2022-10-17T10:37:17.242Z,10.07
2022-10-17T10:39:59.428Z,8.10
2022-10-17T10:42:39.535Z,7.93
2022-10-17T10:45:35.991Z,9.13
2022-10-17T10:48:26.761Z,7.78
2022-10-17T10:51:04.505Z,8.23
2022-10-17T10:53:44.365Z,8.52
2022-10-17T10:56:49.875Z,9.00
2022-10-17T10:59:43.305Z,7.38
2022-10-17T11:02:25.350Z,7.20
2022-10-17T11:05:13.767Z,7.25
2022-10-17T11:08:08.068Z,11.63
2022-10-17T11:10:41.448Z,8.23
2022-10-17T11:13:18.123Z,7.25
2022-10-17T11:15:51.621Z,7.25
2022-10-17T11:18:18.113Z,6.55
2022-10-17T11:21:13.415Z,7.10
2022-10-17T11:23:48.824Z,6.65
2022-10-17T11:26:28.117Z,7.85
2022-10-17T11:28:56.487Z,5.80
2022-10-17T11:31:26.978Z,7.70
2022-10-17T11:34:03.881Z,7.57
2022-10-17T11:36:34.720Z,6.35
2022-10-17T11:39:09.186Z,8.13
2022-10-17T11:42:03.242Z,7.03
2022-10-17T11:44:42.953Z,7.03
2022-10-17T11:47:28.399Z,7.22
2022-10-17T11:52:59.936Z,8.68
2022-10-17T11:55:29.561Z,6.07
2022-10-17T11:58:14.458Z,8.10
2022-10-17T12:00:51.485Z,7.45
2022-10-17T12:03:18.036Z,6.95
2022-10-17T12:05:58.978Z,7.75
2022-10-17T12:08:44.511Z,7.10
2022-10-17T12:11:45.906Z,6.15
2022-10-17T12:14:36.118Z,8.27
2022-10-17T12:17:04.346Z,5.38
2022-10-17T12:19:36.702Z,7.75
2022-10-17T12:22:41.649Z,6.65
2022-10-17T12:25:19.137Z,6.78
2022-10-17T12:27:48.623Z,6.65
2022-10-17T12:30:19.977Z,7.20
2022-10-17T12:33:07.952Z,7.22
2022-10-17T12:35:37.199Z,8.00
2022-10-17T12:38:21.079Z,6.00
2022-10-17T12:41:07.869Z,6.55
2022-10-17T12:43:44.763Z,5.93
2022-10-17T12:46:12.342Z,6.82
2022-10-17T12:48:39.064Z,7.32
2022-10-17T12:54:16.641Z,5.82
2022-10-17T12:56:48.120Z,4.80
2022-10-17T12:59:22.552Z,6.70
2022-10-17T13:01:55.087Z,6.57
2022-10-17T13:04:22.614Z,6.57
2022-10-17T13:06:54.471Z,4.72
2022-10-17T13:09:32.706Z,5.78
2022-10-17T13:12:03.750Z,8.02
2022-10-17T13:14:33.371Z,4.88
2022-10-17T13:17:04.241Z,5.40
2022-10-17T13:19:40.144Z,6.18
2022-10-17T13:22:21.322Z,7.22
2022-10-17T13:24:49.027Z,5.60
2022-10-17T13:27:29.802Z,7.30
2022-10-17T13:29:58.354Z,6.43
2022-10-17T13:32:27.269Z,5.85
2022-10-17T13:35:07.462Z,4.88
2022-10-17T13:37:35.777Z,6.38
2022-10-17T13:40:17.520Z,4.43
2022-10-17T13:42:52.410Z,6.68
2022-10-17T13:45:34.407Z,6.30
2022-10-17T13:48:08.268Z,4.85
2022-10-17T13:50:45.034Z,6.47
2022-10-17T13:53:17.461Z,7.90
2022-10-17T13:56:26.797Z,7.60
2022-10-17T13:58:57.736Z,6.88
2022-10-17T14:01:30.872Z,8.00
2022-10-17T14:04:08.861Z,5.63
2022-10-17T14:06:45.200Z,5.75
2022-10-17T14:09:26.706Z,7.55
2022-10-17T14:12:02.444Z,7.00
2022-10-17T14:14:46.064Z,6.30
2022-10-17T14:17:28.819Z,6.28
2022-10-17T14:20:34.522Z,5.13
2022-10-17T14:23:10.811Z,6.95
2022-10-17T14:25:43.283Z,5.03
2022-10-17T14:28:13.982Z,5.82
2022-10-17T14:31:01.690Z,6.47
2022-10-17T14:33:32.102Z,5.53
2022-10-17T14:36:01.970Z,5.57
2022-10-17T14:38:30.086Z,5.25
2022-10-17T14:41:37.347Z,6.68
2022-10-17T14:44:07.537Z,5.07
2022-10-17T14:46:37.962Z,6.35
2022-10-17T14:49:21.802Z,6.07
2022-10-17T14:52:23.683Z,6.25
2022-10-17T14:54:50.420Z,5.75
2022-10-17T14:57:27.477Z,6.25
2022-10-17T14:59:56.382Z,5.32
2022-10-17T15:02:29.232Z,6.63
2022-10-17T15:04:56.284Z,6.10
2022-10-17T15:07:24.003Z,6.03
2022-10-17T15:09:52.884Z,6.20
2022-10-17T15:12:25.296Z,6.25
2022-10-17T15:14:53.317Z,3.85
2022-10-17T15:17:30.236Z,7.28
2022-10-17T15:19:59.404Z,6.22
2022-10-17T15:22:26.645Z,5.38
2022-10-17T15:24:53.492Z,5.60
2022-10-17T15:27:25.955Z,6.53
2022-10-17T15:29:53.208Z,5.32
2022-10-17T15:32:19.917Z,5.18
2022-10-17T15:34:46.697Z,5.40
2022-10-17T15:37:18.953Z,5.28
2022-10-17T15:39:53.361Z,3.65
2022-10-17T15:42:23.207Z,6.40
2022-10-17T15:44:50.471Z,6.55
2022-10-17T15:47:23.540Z,6.68
2022-10-17T15:49:50.400Z,5.75
2022-10-17T15:52:17.031Z,6.45
2022-10-17T15:54:43.613Z,6.68
2022-10-17T15:57:18.260Z,6.38
2022-10-17T15:59:47.113Z,6.70
2022-10-17T16:02:15.821Z,5.70
2022-10-17T16:04:43.380Z,6.75
2022-10-17T16:07:10.847Z,6.53
2022-10-17T16:09:37.613Z,6.40
2022-10-17T16:12:06.411Z,5.50
2022-10-17T16:14:33.251Z,6.60
2022-10-17T16:17:00.397Z,5.25
2022-10-17T16:19:30.107Z,5.78
2022-10-17T16:21:59.670Z,3.45
2022-10-17T16:24:28.825Z,5.72
2022-10-17T16:26:55.395Z,4.80
2022-10-17T16:29:21.982Z,4.88
2022-10-17T16:31:48.571Z,5.88
2022-10-17T16:34:16.021Z,5.80
2022-10-17T16:36:42.947Z,5.97
2022-10-17T16:39:09.802Z,6.72
2022-10-17T16:41:38.365Z,6.95
2022-10-17T16:44:10.863Z,5.72
2022-10-17T16:46:37.795Z,6.82
2022-10-17T16:49:07.791Z,5.93
2022-10-17T16:51:35.990Z,6.00
2022-10-17T16:54:04.662Z,6.43
2022-10-17T16:56:32.919Z,5.18
2022-10-17T16:59:00.813Z,6.13
2022-10-17T17:01:29.429Z,6.28
2022-10-17T17:03:56.959Z,6.35
2022-10-17T17:06:28.379Z,6.45
2022-10-17T17:08:56.456Z,5.60
2022-10-17T17:11:25.822Z,6.30
2022-10-17T17:13:54.803Z,5.63
2022-10-17T17:16:23.449Z,5.18
2022-10-17T17:18:55.410Z,6.38
2022-10-17T17:21:22.493Z,6.35
2022-10-17T17:23:49.153Z,5.85
2022-10-17T17:26:18.583Z,6.22
2022-10-17T17:28:45.876Z,7.03
2022-10-17T17:31:23.878Z,5.95
2022-10-17T17:33:51.823Z,5.93
2022-10-17T17:36:22.732Z,6.10
2022-10-17T17:38:51.301Z,5.30
2022-10-17T17:41:20.215Z,6.18
2022-10-17T17:43:48.049Z,6.13
2022-10-17T17:46:17.083Z,6.70
2022-10-17T17:48:44.900Z,7.13
2022-10-17T17:51:13.743Z,5.97
2022-10-17T17:53:40.492Z,6.15
2022-10-17T17:56:14.294Z,6.10
2022-10-17T17:58:45.884Z,7.38
2022-10-17T18:01:18.343Z,7.45
2022-10-17T18:03:45.850Z,5.32
2022-10-17T18:06:12.901Z,5.68
2022-10-17T18:08:40.163Z,7.22
2022-10-17T18:11:06.747Z,6.13
2022-10-17T18:13:33.324Z,6.18
2022-10-17T18:16:01.621Z,6.63
2022-10-17T18:18:30.632Z,5.82
2022-10-17T18:21:00.945Z,6.25
2022-10-17T18:23:27.553Z,6.80
2022-10-17T18:25:58.480Z,6.43
2022-10-17T18:28:25.270Z,6.18
2022-10-17T18:30:52.485Z,7.00
2022-10-17T18:33:19.127Z,6.57
2022-10-17T18:35:46.087Z,6.82
2022-10-17T18:38:12.857Z,5.85
2022-10-17T18:40:39.499Z,6.05
2022-10-17T18:43:06.524Z,6.60
2022-10-17T18:45:33.525Z,6.00
2022-10-17T18:48:01.611Z,7.07
2022-10-17T18:50:29.582Z,6.20
2022-10-17T18:52:56.242Z,6.20
2022-10-17T18:55:22.885Z,6.45
2022-10-17T18:57:50.498Z,6.63
2022-10-17T19:00:17.618Z,6.60
2022-10-17T19:02:49.501Z,6.53
2022-10-17T19:05:16.145Z,6.78
2022-10-17T19:07:42.715Z,6.55
2022-10-17T19:10:09.547Z,6.88
2022-10-17T19:12:37.146Z,6.78
2022-10-17T19:15:04.162Z,6.55
2022-10-17T19:17:31.150Z,7.05
2022-10-17T19:19:58.303Z,6.75
2022-10-17T19:22:24.947Z,6.97
2022-10-17T19:24:51.624Z,6.95
2022-10-17T19:27:20.866Z,7.20
2022-10-17T19:29:47.578Z,7.47
2022-10-17T19:32:17.895Z,7.18
2022-10-17T19:34:47.389Z,6.50
2022-10-17T19:37:14.814Z,7.25
2022-10-17T19:39:41.504Z,7.22
2022-10-17T19:42:09.551Z,7.20
2022-10-17T19:44:36.279Z,6.93
2022-10-17T19:47:02.869Z,7.43
2022-10-17T19:49:29.582Z,6.82
2022-10-17T19:52:03.856Z,7.22
2022-10-17T19:54:30.567Z,7.18
2022-10-17T19:56:57.529Z,7.25
2022-10-17T20:01:53.352Z,7.25
2022-10-17T20:04:22.268Z,7.15
2022-10-17T20:06:49.014Z,9.23
2022-10-17T20:09:17.245Z,8.00
2022-10-17T20:11:44.418Z,6.70
2022-10-17T20:14:11.203Z,7.50
2022-10-17T20:16:39.594Z,7.28
2022-10-17T20:19:11.385Z,6.90
2022-10-17T20:21:40.944Z,6.75
2022-10-17T20:24:11.129Z,7.43
2022-10-17T20:26:39.441Z,7.60
2022-10-17T20:29:13.328Z,6.57
2022-10-17T20:31:41.439Z,7.22
2022-10-17T20:34:12.007Z,7.43
2022-10-17T20:36:38.655Z,7.85
2022-10-17T20:39:06.560Z,9.32
2022-10-17T20:41:33.806Z,7.30
2022-10-17T20:44:00.455Z,7.55
2022-10-17T20:46:36.988Z,6.78
2022-10-17T20:49:07.137Z,6.30
2022-10-17T20:51:34.745Z,5.07
2022-10-17T20:54:02.939Z,7.03
2022-10-17T20:56:31.482Z,7.65
2022-10-17T20:59:00.566Z,8.23
2022-10-17T21:01:28.907Z,7.63
2022-10-17T21:03:58.901Z,7.75
2022-10-17T21:06:27.977Z,7.25
2022-10-17T21:08:56.069Z,7.57
2022-10-17T21:11:25.238Z,7.53
2022-10-17T21:14:18.398Z,7.65
2022-10-17T21:16:46.285Z,8.00
2022-10-17T21:19:13.951Z,8.38
2022-10-17T21:21:44.199Z,7.88
2022-10-17T21:24:14.634Z,8.10
2022-10-17T21:26:42.720Z,7.78
2022-10-17T21:29:12.070Z,8.02
2022-10-17T21:31:42.531Z,8.00
2022-10-17T21:34:18.917Z,8.05
2022-10-17T21:36:46.009Z,8.10
2022-10-17T21:39:14.455Z,7.93
2022-10-17T21:41:42.219Z,7.80
2022-10-17T21:44:14.751Z,8.60
2022-10-17T21:46:41.603Z,4.50
2022-10-17T21:49:10.885Z,5.45
2022-10-17T21:51:37.855Z,6.03
2022-10-17T21:54:06.055Z,4.95
2022-10-17T21:56:34.866Z,6.85
2022-10-17T21:59:01.700Z,7.75
2022-10-17T22:01:34.900Z,7.28
2022-10-17T22:04:04.673Z,7.63
2022-10-17T22:06:39.739Z,6.95
2022-10-17T22:09:14.450Z,6.82
2022-10-17T22:11:41.785Z,7.85
2022-10-17T22:14:12.278Z,7.30
2022-10-17T22:16:39.318Z,7.43
2022-10-17T22:19:07.443Z,6.80
2022-10-17T22:21:36.129Z,7.18
2022-10-17T22:24:06.003Z,7.10
2022-10-17T22:26:35.107Z,7.40
2022-10-17T22:29:02.061Z,7.45
2022-10-17T22:31:28.929Z,7.40
2022-10-17T22:33:57.093Z,7.22
2022-10-17T22:36:24.267Z,7.60
2022-10-17T22:38:50.986Z,7.50
2022-10-17T22:41:17.609Z,7.38
2022-10-17T22:43:44.684Z,7.63
2022-10-17T22:46:13.388Z,7.75
2022-10-17T22:48:42.753Z,7.82
2022-10-17T22:51:09.419Z,7.85
2022-10-17T22:53:37.462Z,7.60
2022-10-17T22:56:07.361Z,7.78
2022-10-17T22:58:35.682Z,8.05
2022-10-17T23:01:03.247Z,8.68
2022-10-17T23:03:30.669Z,8.55
2022-10-17T23:05:57.821Z,8.27
2022-10-17T23:08:25.360Z,8.43
2022-10-17T23:10:52.052Z,8.25
2022-10-17T23:13:21.397Z,9.20
2022-10-17T23:15:55.721Z,8.55
2022-10-17T23:18:23.551Z,8.50
2022-10-17T23:20:51.050Z,8.05
2022-10-17T23:23:18.654Z,8.10
2022-10-17T23:25:46.042Z,8.00
2022-10-17T23:28:12.818Z,8.65
2022-10-17T23:30:39.630Z,8.55
2022-10-17T23:33:09.314Z,8.43
2022-10-17T23:35:36.204Z,7.70
2022-10-17T23:38:03.378Z,8.73
2022-10-17T23:40:30.334Z,8.00
2022-10-17T23:42:56.954Z,8.65
2022-10-17T23:45:23.785Z,7.25
2022-10-17T23:47:50.377Z,9.10
2022-10-17T23:50:17.085Z,8.43
2022-10-17T23:52:43.798Z,8.05
2022-10-17T23:55:11.156Z,8.73
2022-10-17T23:57:37.775Z,8.38
